BAW46V EHAM-EGLL
Flight info
| Callsign | BAW46V |
|---|---|
| Flight time | 0h 58m |
| Altitude | 24000 |
| Route | IDRID L980 LOGAN |
| Aircraft | A320/M-SDE3FGHIRWY/LB1 |
Departure
| Time | 2026-05-06 15:56 |
|---|---|
| Airport | Amsterdam Airport Schiphol (EHAM) |
Arrival
| Time | 2026-05-06 16:54 |
|---|---|
| Airport | London Heathrow Airport (EGLL) |
| Time | Latitude | Longitude | Altitude | Speed | Heading |
|---|---|---|---|---|---|
| 2026-05-06 15:18 | 52.30709 | 4.77025 | -2 ft | 0 kts | 4° |
| 2026-05-06 15:44 | 52.30696 | 4.77024 | -2 ft | 4 kts | 4° |
| 2026-05-06 15:44 | 52.30673 | 4.77021 | -2 ft | 2 kts | 4° |
| 2026-05-06 15:44 | 52.30653 | 4.77013 | -2 ft | 4 kts | 65° |
| 2026-05-06 15:44 | 52.30653 | 4.76979 | -2 ft | 4 kts | 101° |
| 2026-05-06 15:45 | 52.30657 | 4.76936 | -2 ft | 4 kts | 94° |
| 2026-05-06 15:45 | 52.30658 | 4.76917 | -2 ft | 0 kts | 94° |
| 2026-05-06 15:48 | 52.30658 | 4.76918 | -2 ft | 1 kts | 94° |
| 2026-05-06 15:48 | 52.30657 | 4.76941 | -2 ft | 3 kts | 96° |
| 2026-05-06 15:49 | 52.30650 | 4.76996 | -2 ft | 7 kts | 101° |
| 2026-05-06 15:49 | 52.30643 | 4.77088 | -2 ft | 10 kts | 90° |
| 2026-05-06 15:49 | 52.30642 | 4.77211 | -3 ft | 12 kts | 92° |
| 2026-05-06 15:49 | 52.30638 | 4.77359 | -2 ft | 14 kts | 90° |
| 2026-05-06 15:50 | 52.30647 | 4.77529 | -2 ft | 16 kts | 80° |
| 2026-05-06 15:50 | 52.30739 | 4.77598 | -2 ft | 17 kts | 1° |
| 2026-05-06 15:50 | 52.30863 | 4.77604 | -3 ft | 19 kts | 1° |
| 2026-05-06 15:50 | 52.31001 | 4.77618 | -3 ft | 21 kts | 4° |
| 2026-05-06 15:51 | 52.31147 | 4.77633 | -3 ft | 21 kts | 3° |
| 2026-05-06 15:51 | 52.31289 | 4.77646 | -2 ft | 20 kts | 2° |
| 2026-05-06 15:51 | 52.31434 | 4.77644 | -2 ft | 22 kts | 342° |
| 2026-05-06 15:51 | 52.31555 | 4.77484 | -2 ft | 24 kts | 309° |
| 2026-05-06 15:52 | 52.31573 | 4.77216 | -3 ft | 25 kts | 266° |
| 2026-05-06 15:52 | 52.31563 | 4.76918 | -3 ft | 27 kts | 267° |
| 2026-05-06 15:52 | 52.31553 | 4.76608 | -2 ft | 23 kts | 267° |
| 2026-05-06 15:52 | 52.31544 | 4.76340 | -2 ft | 24 kts | 266° |
| 2026-05-06 15:53 | 52.31534 | 4.76052 | -2 ft | 26 kts | 267° |
| 2026-05-06 15:53 | 52.31527 | 4.75845 | -2 ft | 28 kts | 266° |
| 2026-05-06 15:53 | 52.31516 | 4.75520 | -3 ft | 30 kts | 267° |
| 2026-05-06 15:53 | 52.31504 | 4.75172 | -3 ft | 32 kts | 267° |
| 2026-05-06 15:54 | 52.31492 | 4.74824 | -2 ft | 27 kts | 265° |
| 2026-05-06 15:54 | 52.31537 | 4.74667 | -2 ft | 16 kts | 344° |
| 2026-05-06 15:54 | 52.31645 | 4.74680 | 0 ft | 16 kts | 29° |
| 2026-05-06 15:54 | 52.31670 | 4.74811 | -1 ft | 0 kts | 87° |
| 2026-05-06 15:55 | 52.31675 | 4.74976 | -6 ft | 46 kts | 86° |
| 2026-05-06 15:55 | 52.31706 | 4.75859 | -2 ft | 106 kts | 85° |
| 2026-05-06 15:56 | 52.31755 | 4.77322 | -2 ft | 150 kts | 86° |
| 2026-05-06 15:56 | 52.31825 | 4.79185 | 177 ft | 173 kts | 85° |
| 2026-05-06 15:56 | 52.32213 | 4.81059 | 665 ft | 178 kts | 49° |
| 2026-05-06 15:56 | 52.33256 | 4.82064 | 1388 ft | 180 kts | 10° |
| 2026-05-06 15:57 | 52.34560 | 4.81747 | 1826 ft | 205 kts | 346° |
| 2026-05-06 15:57 | 52.35948 | 4.80934 | 2405 ft | 216 kts | 345° |
| 2026-05-06 15:57 | 52.37375 | 4.80114 | 3191 ft | 219 kts | 346° |
| 2026-05-06 15:57 | 52.38800 | 4.79138 | 3932 ft | 229 kts | 327° |
| 2026-05-06 15:58 | 52.39986 | 4.77222 | 4409 ft | 253 kts | 316° |
| 2026-05-06 15:58 | 52.41225 | 4.75052 | 5040 ft | 265 kts | 317° |
| 2026-05-06 15:58 | 52.42521 | 4.72856 | 5695 ft | 270 kts | 316° |
| 2026-05-06 15:58 | 52.43845 | 4.70658 | 5862 ft | 271 kts | 319° |
| 2026-05-06 15:59 | 52.45143 | 4.68462 | 5914 ft | 272 kts | 311° |
| 2026-05-06 15:59 | 52.46126 | 4.65781 | 6245 ft | 280 kts | 293° |
| 2026-05-06 15:59 | 52.46597 | 4.62684 | 7149 ft | 282 kts | 277° |
| 2026-05-06 15:59 | 52.46668 | 4.59445 | 7986 ft | 285 kts | 272° |
| 2026-05-06 16:00 | 52.46428 | 4.56216 | 8852 ft | 289 kts | 254° |
| 2026-05-06 16:00 | 52.45563 | 4.53235 | 9702 ft | 293 kts | 236° |
| 2026-05-06 16:00 | 52.44149 | 4.50802 | 10387 ft | 301 kts | 219° |
| 2026-05-06 16:00 | 52.42355 | 4.48784 | 10579 ft | 324 kts | 220° |
| 2026-05-06 16:01 | 52.40793 | 4.46017 | 10879 ft | 338 kts | 236° |
| 2026-05-06 16:01 | 52.39604 | 4.42676 | 11509 ft | 341 kts | 244° |
| 2026-05-06 16:01 | 52.38605 | 4.39146 | 12224 ft | 342 kts | 248° |
| 2026-05-06 16:01 | 52.37652 | 4.35570 | 12967 ft | 344 kts | 247° |
| 2026-05-06 16:02 | 52.36661 | 4.31991 | 13693 ft | 346 kts | 246° |
| 2026-05-06 16:02 | 52.35609 | 4.28419 | 14307 ft | 349 kts | 245° |
| 2026-05-06 16:02 | 52.34505 | 4.24882 | 14955 ft | 350 kts | 244° |
| 2026-05-06 16:02 | 52.33475 | 4.21711 | 15561 ft | 351 kts | 243° |
| 2026-05-06 16:03 | 52.32307 | 4.18189 | 16138 ft | 354 kts | 242° |
| 2026-05-06 16:03 | 52.31920 | 4.17034 | 16297 ft | 356 kts | 242° |
| 2026-05-06 16:03 | 52.31735 | 4.16502 | 16382 ft | 356 kts | 240° |
| 2026-05-06 16:03 | 52.30366 | 4.13343 | 16958 ft | 359 kts | 233° |
| 2026-05-06 16:04 | 52.29391 | 4.11344 | 17321 ft | 361 kts | 233° |
| 2026-05-06 16:04 | 52.27835 | 4.08125 | 17995 ft | 362 kts | 232° |
| 2026-05-06 16:04 | 52.26293 | 4.04902 | 18515 ft | 366 kts | 233° |
| 2026-05-06 16:04 | 52.24718 | 4.01603 | 19034 ft | 369 kts | 234° |
| 2026-05-06 16:05 | 52.23136 | 3.98293 | 19638 ft | 371 kts | 233° |
| 2026-05-06 16:05 | 52.21544 | 3.94962 | 20185 ft | 374 kts | 233° |
| 2026-05-06 16:05 | 52.19938 | 3.91604 | 20715 ft | 377 kts | 233° |
| 2026-05-06 16:05 | 52.18323 | 3.88232 | 21296 ft | 378 kts | 232° |
| 2026-05-06 16:06 | 52.16701 | 3.84860 | 21900 ft | 378 kts | 233° |
| 2026-05-06 16:06 | 52.15071 | 3.81473 | 22390 ft | 381 kts | 233° |
| 2026-05-06 16:06 | 52.13420 | 3.78046 | 22822 ft | 386 kts | 233° |
| 2026-05-06 16:06 | 52.11760 | 3.74607 | 23349 ft | 387 kts | 233° |
| 2026-05-06 16:07 | 52.10094 | 3.71155 | 23779 ft | 390 kts | 233° |
| 2026-05-06 16:07 | 52.08416 | 3.67687 | 23893 ft | 391 kts | 233° |
| 2026-05-06 16:07 | 52.06740 | 3.64236 | 23919 ft | 388 kts | 233° |
| 2026-05-06 16:07 | 52.05069 | 3.60806 | 23920 ft | 386 kts | 232° |
| 2026-05-06 16:08 | 52.03399 | 3.57386 | 23914 ft | 386 kts | 232° |
| 2026-05-06 16:08 | 52.01724 | 3.53949 | 23918 ft | 387 kts | 232° |
| 2026-05-06 16:08 | 52.00060 | 3.50533 | 23926 ft | 385 kts | 233° |
| 2026-05-06 16:08 | 51.98411 | 3.47095 | 23922 ft | 387 kts | 234° |
| 2026-05-06 16:09 | 51.96803 | 3.43593 | 23925 ft | 389 kts | 234° |
| 2026-05-06 16:09 | 51.95216 | 3.40046 | 23927 ft | 388 kts | 235° |
| 2026-05-06 16:09 | 51.93643 | 3.36501 | 23922 ft | 387 kts | 234° |
| 2026-05-06 16:09 | 51.92067 | 3.32959 | 23922 ft | 388 kts | 234° |
| 2026-05-06 16:10 | 51.90478 | 3.29421 | 23937 ft | 388 kts | 234° |
| 2026-05-06 16:10 | 51.88881 | 3.25892 | 23936 ft | 387 kts | 234° |
| 2026-05-06 16:10 | 51.87306 | 3.22425 | 23937 ft | 387 kts | 235° |
| 2026-05-06 16:10 | 51.85962 | 3.18595 | 23935 ft | 388 kts | 249° |
| 2026-05-06 16:11 | 51.85325 | 3.14414 | 23945 ft | 389 kts | 262° |
| 2026-05-06 16:11 | 51.85014 | 3.10070 | 23957 ft | 388 kts | 263° |
| 2026-05-06 16:11 | 51.84730 | 3.05735 | 23955 ft | 388 kts | 263° |
| 2026-05-06 16:11 | 51.84461 | 3.01378 | 23952 ft | 388 kts | 264° |
| 2026-05-06 16:12 | 51.84198 | 2.97032 | 23953 ft | 388 kts | 264° |
| 2026-05-06 16:12 | 51.83933 | 2.92695 | 23952 ft | 388 kts | 263° |
| 2026-05-06 16:12 | 51.83663 | 2.88362 | 23960 ft | 387 kts | 263° |
| 2026-05-06 16:12 | 51.83386 | 2.84032 | 23957 ft | 387 kts | 263° |
| 2026-05-06 16:13 | 51.83103 | 2.79702 | 23953 ft | 387 kts | 263° |
| 2026-05-06 16:13 | 51.82819 | 2.75377 | 23951 ft | 387 kts | 263° |
| 2026-05-06 16:13 | 51.82536 | 2.71047 | 23958 ft | 387 kts | 263° |
| 2026-05-06 16:13 | 51.82251 | 2.66726 | 23958 ft | 387 kts | 263° |
| 2026-05-06 16:14 | 51.81962 | 2.62399 | 23955 ft | 387 kts | 263° |
| 2026-05-06 16:14 | 51.81670 | 2.58076 | 23953 ft | 387 kts | 263° |
| 2026-05-06 16:14 | 51.81376 | 2.53746 | 23953 ft | 387 kts | 263° |
| 2026-05-06 16:14 | 51.81079 | 2.49421 | 23963 ft | 387 kts | 263° |
| 2026-05-06 16:15 | 51.80785 | 2.45096 | 23961 ft | 387 kts | 263° |
| 2026-05-06 16:15 | 51.80495 | 2.40825 | 23967 ft | 387 kts | 263° |
| 2026-05-06 16:15 | 51.80200 | 2.36503 | 23965 ft | 387 kts | 263° |
| 2026-05-06 16:15 | 51.79903 | 2.32177 | 23969 ft | 387 kts | 263° |
| 2026-05-06 16:16 | 51.79605 | 2.27849 | 23965 ft | 388 kts | 263° |
| 2026-05-06 16:16 | 51.79304 | 2.23524 | 23965 ft | 387 kts | 263° |
| 2026-05-06 16:16 | 51.79000 | 2.19203 | 23965 ft | 387 kts | 263° |
| 2026-05-06 16:16 | 51.78694 | 2.14876 | 23956 ft | 387 kts | 263° |
| 2026-05-06 16:17 | 51.78387 | 2.10556 | 23960 ft | 387 kts | 263° |
| 2026-05-06 16:17 | 51.78076 | 2.06230 | 23962 ft | 387 kts | 263° |
| 2026-05-06 16:17 | 51.77764 | 2.01914 | 23962 ft | 387 kts | 263° |
| 2026-05-06 16:17 | 51.77450 | 1.97591 | 23962 ft | 387 kts | 263° |
| 2026-05-06 16:18 | 51.77138 | 1.93275 | 23968 ft | 387 kts | 263° |
| 2026-05-06 16:18 | 51.76825 | 1.88937 | 23961 ft | 388 kts | 263° |
| 2026-05-06 16:18 | 51.76508 | 1.84614 | 23958 ft | 388 kts | 263° |
| 2026-05-06 16:18 | 51.76189 | 1.80284 | 23957 ft | 389 kts | 263° |
| 2026-05-06 16:19 | 51.75866 | 1.75946 | 23960 ft | 389 kts | 263° |
| 2026-05-06 16:19 | 51.75546 | 1.71662 | 23961 ft | 389 kts | 263° |
| 2026-05-06 16:19 | 51.75220 | 1.67316 | 23961 ft | 389 kts | 263° |
| 2026-05-06 16:19 | 51.74895 | 1.62985 | 23895 ft | 388 kts | 263° |
| 2026-05-06 16:20 | 51.74577 | 1.58664 | 23334 ft | 387 kts | 263° |
| 2026-05-06 16:20 | 51.74289 | 1.54362 | 22872 ft | 382 kts | 264° |
| 2026-05-06 16:20 | 51.74020 | 1.50108 | 22414 ft | 379 kts | 264° |
| 2026-05-06 16:20 | 51.73759 | 1.45890 | 21962 ft | 376 kts | 264° |
| 2026-05-06 16:21 | 51.73500 | 1.41707 | 21494 ft | 374 kts | 264° |
| 2026-05-06 16:21 | 51.73238 | 1.37544 | 21043 ft | 371 kts | 264° |
| 2026-05-06 16:21 | 51.72972 | 1.33411 | 20561 ft | 369 kts | 264° |
| 2026-05-06 16:21 | 51.72705 | 1.29313 | 20086 ft | 367 kts | 264° |
| 2026-05-06 16:22 | 51.72437 | 1.25241 | 19608 ft | 365 kts | 264° |
| 2026-05-06 16:22 | 51.72168 | 1.21186 | 19130 ft | 362 kts | 264° |
| 2026-05-06 16:22 | 51.71899 | 1.17156 | 18652 ft | 360 kts | 264° |
| 2026-05-06 16:22 | 51.71633 | 1.13203 | 18174 ft | 358 kts | 264° |
| 2026-05-06 16:23 | 51.71364 | 1.09219 | 17665 ft | 355 kts | 264° |
| 2026-05-06 16:23 | 51.71098 | 1.05281 | 17193 ft | 352 kts | 264° |
| 2026-05-06 16:23 | 51.70830 | 1.01382 | 16726 ft | 348 kts | 264° |
| 2026-05-06 16:23 | 51.70560 | 0.97496 | 16257 ft | 345 kts | 264° |
| 2026-05-06 16:24 | 51.70295 | 0.93678 | 15813 ft | 342 kts | 264° |
| 2026-05-06 16:24 | 51.70029 | 0.89879 | 15309 ft | 340 kts | 264° |
| 2026-05-06 16:24 | 51.69765 | 0.86094 | 14814 ft | 338 kts | 265° |
| 2026-05-06 16:24 | 51.69505 | 0.82335 | 14325 ft | 337 kts | 264° |
| 2026-05-06 16:25 | 51.69246 | 0.78588 | 13837 ft | 336 kts | 265° |
| 2026-05-06 16:25 | 51.68984 | 0.74863 | 13302 ft | 331 kts | 264° |
| 2026-05-06 16:25 | 51.68725 | 0.71257 | 12833 ft | 318 kts | 265° |
| 2026-05-06 16:25 | 51.68471 | 0.67732 | 12366 ft | 315 kts | 265° |
| 2026-05-06 16:26 | 51.68225 | 0.64292 | 11922 ft | 313 kts | 265° |
| 2026-05-06 16:26 | 51.67973 | 0.60798 | 11467 ft | 314 kts | 264° |
| 2026-05-06 16:26 | 51.67721 | 0.57308 | 11028 ft | 313 kts | 264° |
| 2026-05-06 16:26 | 51.67473 | 0.53886 | 10894 ft | 302 kts | 264° |
| 2026-05-06 16:27 | 51.67231 | 0.50584 | 10761 ft | 292 kts | 265° |
| 2026-05-06 16:27 | 51.66994 | 0.47378 | 10548 ft | 285 kts | 266° |
| 2026-05-06 16:27 | 51.66760 | 0.44204 | 10147 ft | 286 kts | 265° |
| 2026-05-06 16:27 | 51.66526 | 0.41021 | 9793 ft | 286 kts | 266° |
| 2026-05-06 16:28 | 51.66292 | 0.37834 | 9283 ft | 290 kts | 265° |
| 2026-05-06 16:28 | 51.66055 | 0.34630 | 9017 ft | 284 kts | 264° |
| 2026-05-06 16:28 | 51.65823 | 0.31478 | 8666 ft | 282 kts | 265° |
| 2026-05-06 16:28 | 51.65591 | 0.28357 | 8049 ft | 280 kts | 265° |
| 2026-05-06 16:29 | 51.65358 | 0.25256 | 7473 ft | 277 kts | 265° |
| 2026-05-06 16:29 | 51.65129 | 0.22203 | 7066 ft | 269 kts | 264° |
| 2026-05-06 16:29 | 51.64910 | 0.19319 | 6988 ft | 249 kts | 263° |
| 2026-05-06 16:29 | 51.64701 | 0.16596 | 6998 ft | 244 kts | 264° |
| 2026-05-06 16:30 | 51.64503 | 0.13879 | 6998 ft | 243 kts | 265° |
| 2026-05-06 16:30 | 51.64396 | 0.12088 | 6998 ft | 243 kts | 266° |
| 2026-05-06 16:30 | 51.64204 | 0.08464 | 6999 ft | 243 kts | 267° |
| 2026-05-06 16:30 | 51.64065 | 0.05751 | 7000 ft | 243 kts | 266° |
| 2026-05-06 16:31 | 51.63921 | 0.03041 | 6998 ft | 243 kts | 266° |
| 2026-05-06 16:31 | 51.63778 | 0.00364 | 6999 ft | 243 kts | 266° |
| 2026-05-06 16:31 | 51.63631 | -0.02342 | 7038 ft | 242 kts | 267° |
| 2026-05-06 16:31 | 51.63486 | -0.04955 | 7040 ft | 240 kts | 266° |
| 2026-05-06 16:32 | 51.63335 | -0.07631 | 7041 ft | 239 kts | 267° |
| 2026-05-06 16:32 | 51.63185 | -0.10302 | 7047 ft | 240 kts | 266° |
| 2026-05-06 16:32 | 51.63035 | -0.12978 | 7050 ft | 240 kts | 266° |
| 2026-05-06 16:32 | 51.62884 | -0.15653 | 7051 ft | 240 kts | 266° |
| 2026-05-06 16:33 | 51.62730 | -0.18329 | 7054 ft | 240 kts | 267° |
| 2026-05-06 16:33 | 51.62577 | -0.21004 | 7056 ft | 240 kts | 266° |
| 2026-05-06 16:33 | 51.62421 | -0.23682 | 7053 ft | 240 kts | 266° |
| 2026-05-06 16:34 | 51.62112 | -0.29015 | 7058 ft | 239 kts | 266° |
| 2026-05-06 16:34 | 51.61958 | -0.31679 | 7056 ft | 240 kts | 265° |
| 2026-05-06 16:34 | 51.61803 | -0.34355 | 7002 ft | 240 kts | 267° |
| 2026-05-06 16:34 | 51.61649 | -0.37005 | 6999 ft | 233 kts | 265° |
| 2026-05-06 16:35 | 51.61496 | -0.39578 | 7003 ft | 229 kts | 266° |
| 2026-05-06 16:35 | 51.61347 | -0.42058 | 7000 ft | 220 kts | 266° |
| 2026-05-06 16:35 | 51.61203 | -0.44501 | 7002 ft | 219 kts | 267° |
| 2026-05-06 16:35 | 51.61060 | -0.46934 | 7002 ft | 218 kts | 266° |
| 2026-05-06 16:36 | 51.60917 | -0.49368 | 7004 ft | 219 kts | 266° |
| 2026-05-06 16:36 | 51.60770 | -0.51806 | 7003 ft | 219 kts | 266° |
| 2026-05-06 16:36 | 51.60673 | -0.53413 | 7004 ft | 218 kts | 266° |
| 2026-05-06 16:36 | 51.60525 | -0.55838 | 6999 ft | 218 kts | 267° |
| 2026-05-06 16:37 | 51.60376 | -0.58263 | 7002 ft | 218 kts | 266° |
| 2026-05-06 16:37 | 51.60225 | -0.60691 | 7001 ft | 218 kts | 266° |
| 2026-05-06 16:37 | 51.60075 | -0.63120 | 7000 ft | 218 kts | 267° |
| 2026-05-06 16:37 | 51.59927 | -0.65551 | 6988 ft | 219 kts | 266° |
| 2026-05-06 16:38 | 51.59775 | -0.68017 | 6585 ft | 223 kts | 265° |
| 2026-05-06 16:38 | 51.59618 | -0.70481 | 6191 ft | 217 kts | 259° |
| 2026-05-06 16:38 | 51.59412 | -0.72883 | 5745 ft | 216 kts | 256° |
| 2026-05-06 16:38 | 51.59161 | -0.75255 | 5232 ft | 215 kts | 257° |
| 2026-05-06 16:39 | 51.58891 | -0.77607 | 4741 ft | 213 kts | 255° |
| 2026-05-06 16:39 | 51.58581 | -0.79925 | 4351 ft | 212 kts | 254° |
| 2026-05-06 16:39 | 51.58212 | -0.82228 | 4016 ft | 212 kts | 253° |
| 2026-05-06 16:39 | 51.57933 | -0.84090 | 3863 ft | 215 kts | 255° |
| 2026-05-06 16:40 | 51.57613 | -0.86429 | 3844 ft | 212 kts | 254° |
| 2026-05-06 16:40 | 51.57254 | -0.88750 | 3858 ft | 214 kts | 253° |
| 2026-05-06 16:40 | 51.56847 | -0.91024 | 3860 ft | 215 kts | 249° |
| 2026-05-06 16:40 | 51.56373 | -0.93344 | 3866 ft | 215 kts | 247° |
| 2026-05-06 16:41 | 51.55861 | -0.95569 | 3882 ft | 221 kts | 245° |
| 2026-05-06 16:41 | 51.55263 | -0.97877 | 3908 ft | 220 kts | 243° |
| 2026-05-06 16:41 | 51.54685 | -1.00128 | 3871 ft | 217 kts | 250° |
| 2026-05-06 16:41 | 51.54318 | -1.02482 | 3807 ft | 216 kts | 254° |
| 2026-05-06 16:42 | 51.53936 | -1.04817 | 3745 ft | 216 kts | 252° |
| 2026-05-06 16:42 | 51.53520 | -1.07148 | 3562 ft | 219 kts | 255° |
| 2026-05-06 16:42 | 51.53358 | -1.07990 | 3565 ft | 212 kts | 256° |
| 2026-05-06 16:43 | 51.52906 | -1.10125 | 3751 ft | 215 kts | 255° |
| 2026-05-06 16:43 | 51.52438 | -1.12416 | 4024 ft | 214 kts | 255° |
| 2026-05-06 16:43 | 51.51989 | -1.14685 | 4543 ft | 214 kts | 255° |
| 2026-05-06 16:43 | 51.51541 | -1.16983 | 4954 ft | 218 kts | 257° |
| 2026-05-06 16:44 | 51.51075 | -1.19293 | 5002 ft | 217 kts | 253° |
| 2026-05-06 16:44 | 51.50337 | -1.21366 | 4998 ft | 219 kts | 228° |
| 2026-05-06 16:44 | 51.49035 | -1.22656 | 4821 ft | 223 kts | 195° |
| 2026-05-06 16:44 | 51.47488 | -1.22676 | 4763 ft | 226 kts | 162° |
| 2026-05-06 16:45 | 51.46154 | -1.21440 | 4717 ft | 221 kts | 129° |
| 2026-05-06 16:45 | 51.45413 | -1.19348 | 4665 ft | 215 kts | 99° |
| 2026-05-06 16:45 | 51.45364 | -1.17000 | 4613 ft | 211 kts | 80° |
| 2026-05-06 16:45 | 51.45498 | -1.14654 | 4566 ft | 212 kts | 82° |
| 2026-05-06 16:46 | 51.45631 | -1.12311 | 4514 ft | 211 kts | 83° |
| 2026-05-06 16:46 | 51.45762 | -1.09962 | 4468 ft | 211 kts | 81° |
| 2026-05-06 16:46 | 51.45890 | -1.07619 | 4417 ft | 211 kts | 83° |
| 2026-05-06 16:46 | 51.46014 | -1.05322 | 4363 ft | 205 kts | 83° |
| 2026-05-06 16:47 | 51.46135 | -1.03078 | 4308 ft | 196 kts | 81° |
| 2026-05-06 16:47 | 51.46252 | -1.00938 | 4266 ft | 195 kts | 82° |
| 2026-05-06 16:47 | 51.46371 | -0.98773 | 4217 ft | 195 kts | 81° |
| 2026-05-06 16:47 | 51.46487 | -0.96609 | 4169 ft | 195 kts | 83° |
| 2026-05-06 16:48 | 51.46605 | -0.94426 | 4135 ft | 201 kts | 83° |
| 2026-05-06 16:48 | 51.46730 | -0.92139 | 4067 ft | 207 kts | 81° |
| 2026-05-06 16:48 | 51.46853 | -0.89841 | 3839 ft | 206 kts | 82° |
| 2026-05-06 16:48 | 51.46976 | -0.87531 | 3711 ft | 208 kts | 83° |
| 2026-05-06 16:49 | 51.47097 | -0.85221 | 3585 ft | 209 kts | 82° |
| 2026-05-06 16:49 | 51.47217 | -0.82914 | 3454 ft | 206 kts | 83° |
| 2026-05-06 16:49 | 51.47336 | -0.80622 | 3322 ft | 205 kts | 82° |
| 2026-05-06 16:49 | 51.47467 | -0.78343 | 3209 ft | 205 kts | 80° |
| 2026-05-06 16:50 | 51.47574 | -0.76057 | 3055 ft | 206 kts | 84° |
| 2026-05-06 16:50 | 51.47613 | -0.73773 | 2862 ft | 202 kts | 87° |
| 2026-05-06 16:50 | 51.47630 | -0.71549 | 2715 ft | 197 kts | 85° |
| 2026-05-06 16:50 | 51.47644 | -0.69361 | 2627 ft | 195 kts | 86° |
| 2026-05-06 16:51 | 51.47656 | -0.67238 | 2447 ft | 187 kts | 86° |
| 2026-05-06 16:51 | 51.47668 | -0.65164 | 2194 ft | 184 kts | 85° |
| 2026-05-06 16:51 | 51.47678 | -0.63165 | 1941 ft | 173 kts | 85° |
| 2026-05-06 16:51 | 51.47686 | -0.61318 | 1716 ft | 158 kts | 85° |
| 2026-05-06 16:52 | 51.47695 | -0.59637 | 1523 ft | 144 kts | 85° |
| 2026-05-06 16:52 | 51.47703 | -0.58054 | 1323 ft | 139 kts | 85° |
| 2026-05-06 16:52 | 51.47712 | -0.56496 | 1124 ft | 140 kts | 85° |
| 2026-05-06 16:52 | 51.47726 | -0.54951 | 961 ft | 139 kts | 83° |
| 2026-05-06 16:53 | 51.47730 | -0.53400 | 795 ft | 138 kts | 85° |
| 2026-05-06 16:53 | 51.47733 | -0.51871 | 510 ft | 137 kts | 86° |
| 2026-05-06 16:53 | 51.47741 | -0.50336 | 362 ft | 138 kts | 86° |
| 2026-05-06 16:53 | 51.47748 | -0.48802 | 162 ft | 137 kts | 85° |
| 2026-05-06 16:54 | 51.47757 | -0.47352 | 87 ft | 116 kts | 89° |
| 2026-05-06 16:54 | 51.47758 | -0.46338 | 89 ft | 66 kts | 89° |
| 2026-05-06 16:54 | 51.47758 | -0.45873 | 82 ft | 21 kts | 91° |
| 2026-05-06 16:54 | 51.47755 | -0.45556 | 86 ft | 27 kts | 104° |
| 2026-05-06 16:55 | 51.47643 | -0.45468 | 85 ft | 0 kts | 181° |
| 2026-05-06 16:56 | 51.47623 | -0.45474 | 88 ft | 5 kts | 198° |
| 2026-05-06 16:56 | 51.47598 | -0.45543 | 85 ft | 11 kts | 264° |
| 2026-05-06 16:56 | 51.47595 | -0.45695 | 87 ft | 17 kts | 267° |
| 2026-05-06 16:56 | 51.47594 | -0.45854 | 85 ft | 20 kts | 270° |
| 2026-05-06 16:57 | 51.47595 | -0.46050 | 87 ft | 22 kts | 270° |
| 2026-05-06 16:57 | 51.47593 | -0.46298 | 89 ft | 23 kts | 269° |
| 2026-05-06 16:57 | 51.47592 | -0.46560 | 90 ft | 25 kts | 269° |
| 2026-05-06 16:57 | 51.47586 | -0.46842 | 89 ft | 26 kts | 262° |
| 2026-05-06 16:58 | 51.47582 | -0.47147 | 91 ft | 29 kts | 270° |
| 2026-05-06 16:58 | 51.47581 | -0.47465 | 88 ft | 29 kts | 269° |
| 2026-05-06 16:58 | 51.47580 | -0.47780 | 89 ft | 27 kts | 269° |
| 2026-05-06 16:58 | 51.47578 | -0.48092 | 90 ft | 29 kts | 269° |
| 2026-05-06 16:59 | 51.47579 | -0.48402 | 91 ft | 20 kts | 271° |
| 2026-05-06 16:59 | 51.47466 | -0.48476 | 85 ft | 21 kts | 178° |
| 2026-05-06 16:59 | 51.47369 | -0.48476 | 85 ft | 7 kts | 182° |
| 2026-05-06 16:59 | 51.47361 | -0.48521 | 85 ft | 5 kts | 277° |
| 2026-05-06 17:00 | 51.47361 | -0.48581 | 85 ft | 5 kts | 270° |
| 2026-05-06 17:00 | 51.47361 | -0.48593 | 88 ft | 0 kts | 271° |